sensor_id;sensor_type;location;lat;lon;timestamp;pressure;altitude;pressure_sealevel;temperature;humidity
44481;BME280;30184;42.018;23.670;2023-01-30T00:01:45;91440.91;;;0.29;78.44
44481;BME280;30184;42.018;23.670;2023-01-30T00:04:14;91481.94;;;0.58;78.94
44481;BME280;30184;42.018;23.670;2023-01-30T00:06:44;91511.84;;;0.78;79.01
44481;BME280;30184;42.018;23.670;2023-01-30T00:09:13;91518.91;;;0.52;79.56
44481;BME280;30184;42.018;23.670;2023-01-30T00:11:43;91529.00;;;0.73;79.73
44481;BME280;30184;42.018;23.670;2023-01-30T00:14:15;91432.81;;;0.18;79.84
44481;BME280;30184;42.018;23.670;2023-01-30T00:16:44;91477.16;;;0.33;79.70
44481;BME280;30184;42.018;23.670;2023-01-30T00:19:14;91422.53;;;0.20;79.46
44481;BME280;30184;42.018;23.670;2023-01-30T00:21:43;91294.53;;;-0.68;79.54
44481;BME280;30184;42.018;23.670;2023-01-30T00:24:12;91418.25;;;0.12;80.02
44481;BME280;30184;42.018;23.670;2023-01-30T00:26:42;91415.59;;;0.12;80.13
44481;BME280;30184;42.018;23.670;2023-01-30T00:29:11;91416.00;;;0.14;80.36
44481;BME280;30184;42.018;23.670;2023-01-30T00:31:42;91375.34;;;-0.16;80.43
44481;BME280;30184;42.018;23.670;2023-01-30T00:34:11;91414.00;;;0.04;80.80
44481;BME280;30184;42.018;23.670;2023-01-30T00:36:41;91499.13;;;0.60;80.98
44481;BME280;30184;42.018;23.670;2023-01-30T00:39:10;91406.31;;;-0.05;80.76
44481;BME280;30184;42.018;23.670;2023-01-30T00:41:40;91541.03;;;0.53;80.62
44481;BME280;30184;42.018;23.670;2023-01-30T00:44:27;91264.53;;;-0.98;80.32
44481;BME280;30184;42.018;23.670;2023-01-30T00:47:15;91493.69;;;0.50;80.95
44481;BME280;30184;42.018;23.670;2023-01-30T00:49:45;91489.50;;;0.49;80.95
44481;BME280;30184;42.018;23.670;2023-01-30T00:52:16;91483.44;;;0.52;80.83
44481;BME280;30184;42.018;23.670;2023-01-30T00:54:45;91478.00;;;0.41;80.86
44481;BME280;30184;42.018;23.670;2023-01-30T00:57:15;91263.25;;;-1.45;80.48
44481;BME280;30184;42.018;23.670;2023-01-30T00:59:44;91465.81;;;0.44;80.76
44481;BME280;30184;42.018;23.670;2023-01-30T01:02:16;91428.16;;;0.12;80.89
44481;BME280;30184;42.018;23.670;2023-01-30T01:04:46;91444.69;;;0.28;80.96
44481;BME280;30184;42.018;23.670;2023-01-30T01:07:15;91462.34;;;0.40;81.02
44481;BME280;30184;42.018;23.670;2023-01-30T01:09:47;91418.38;;;-0.18;81.00
44481;BME280;30184;42.018;23.670;2023-01-30T01:12:16;91462.69;;;0.34;81.23
44481;BME280;30184;42.018;23.670;2023-01-30T01:14:46;91420.53;;;0.10;81.15
44481;BME280;30184;42.018;23.670;2023-01-30T01:17:16;91458.88;;;0.35;81.15
44481;BME280;30184;42.018;23.670;2023-01-30T01:19:46;91241.50;;;-1.21;81.10
44481;BME280;30184;42.018;23.670;2023-01-30T01:22:21;91463.78;;;0.30;81.63
44481;BME280;30184;42.018;23.670;2023-01-30T01:24:50;91444.22;;;0.15;81.45
44481;BME280;30184;42.018;23.670;2023-01-30T01:27:20;91419.91;;;-0.17;81.44
44481;BME280;30184;42.018;23.670;2023-01-30T01:29:49;91429.00;;;0.19;81.44
44481;BME280;30184;42.018;23.670;2023-01-30T01:32:20;91403.69;;;-0.01;81.04
44481;BME280;30184;42.018;23.670;2023-01-30T01:34:50;91401.75;;;-0.04;80.75
44481;BME280;30184;42.018;23.670;2023-01-30T01:37:19;91386.00;;;-0.16;80.91
44481;BME280;30184;42.018;23.670;2023-01-30T01:39:50;91484.72;;;0.24;80.98
44481;BME280;30184;42.018;23.670;2023-01-30T01:42:38;91355.00;;;-0.31;81.14
44481;BME280;30184;42.018;23.670;2023-01-30T01:45:16;91417.53;;;0.15;80.94
44481;BME280;30184;42.018;23.670;2023-01-30T01:47:57;91422.56;;;0.24;80.85
44481;BME280;30184;42.018;23.670;2023-01-30T01:50:31;91428.66;;;0.24;80.98
44481;BME280;30184;42.018;23.670;2023-01-30T01:53:10;91427.94;;;0.27;80.67
44481;BME280;30184;42.018;23.670;2023-01-30T01:55:41;91425.28;;;0.27;80.83
44481;BME280;30184;42.018;23.670;2023-01-30T01:58:14;91393.03;;;0.03;80.53
44481;BME280;30184;42.018;23.670;2023-01-30T02:00:47;91390.41;;;-0.34;80.19
44481;BME280;30184;42.018;23.670;2023-01-30T02:03:23;91354.38;;;-0.58;80.20
44481;BME280;30184;42.018;23.670;2023-01-30T02:05:54;91436.69;;;0.24;80.40
44481;BME280;30184;42.018;23.670;2023-01-30T02:08:27;91435.91;;;0.24;80.49
44481;BME280;30184;42.018;23.670;2023-01-30T02:11:04;91424.44;;;0.20;80.64
44481;BME280;30184;42.018;23.670;2023-01-30T02:13:37;91430.94;;;0.22;80.70
44481;BME280;30184;42.018;23.670;2023-01-30T02:16:07;91412.00;;;-0.10;80.52
44481;BME280;30184;42.018;23.670;2023-01-30T02:18:39;91422.16;;;0.18;80.09
44481;BME280;30184;42.018;23.670;2023-01-30T02:25:03;91413.75;;;0.16;80.49
44481;BME280;30184;42.018;23.670;2023-01-30T02:27:54;91323.34;;;-0.37;80.46
44481;BME280;30184;42.018;23.670;2023-01-30T02:30:55;91404.63;;;0.21;80.16
44481;BME280;30184;42.018;23.670;2023-01-30T02:33:37;91419.03;;;0.13;79.78
44481;BME280;30184;42.018;23.670;2023-01-30T02:36:14;91388.50;;;0.07;79.97
44481;BME280;30184;42.018;23.670;2023-01-30T02:38:49;91387.06;;;0.16;79.82
44481;BME280;30184;42.018;23.670;2023-01-30T02:41:27;91360.91;;;-0.12;79.54
44481;BME280;30184;42.018;23.670;2023-01-30T02:44:04;91398.91;;;0.22;79.61
44481;BME280;30184;42.018;23.670;2023-01-30T02:46:42;91392.72;;;0.11;79.59
44481;BME280;30184;42.018;23.670;2023-01-30T02:49:18;91404.16;;;0.08;79.81
44481;BME280;30184;42.018;23.670;2023-01-30T02:51:49;91290.38;;;-0.62;80.06
44481;BME280;30184;42.018;23.670;2023-01-30T02:54:20;91339.06;;;-0.28;79.92
44481;BME280;30184;42.018;23.670;2023-01-30T02:56:51;91404.25;;;0.22;80.05
44481;BME280;30184;42.018;23.670;2023-01-30T02:59:27;91434.69;;;0.14;79.74
44481;BME280;30184;42.018;23.670;2023-01-30T03:02:22;91408.81;;;0.18;79.82
44481;BME280;30184;42.018;23.670;2023-01-30T03:05:12;91407.72;;;0.26;79.73
44481;BME280;30184;42.018;23.670;2023-01-30T03:07:53;91591.88;;;0.26;79.74
44481;BME280;30184;42.018;23.670;2023-01-30T03:10:29;91412.66;;;0.28;79.56
44481;BME280;30184;42.018;23.670;2023-01-30T03:13:10;91399.63;;;0.19;79.56
44481;BME280;30184;42.018;23.670;2023-01-30T03:15:47;91391.81;;;-0.07;79.64
44481;BME280;30184;42.018;23.670;2023-01-30T03:18:20;91287.78;;;-0.55;79.82
44481;BME280;30184;42.018;23.670;2023-01-30T03:20:51;91283.34;;;-0.84;79.66
44481;BME280;30184;42.018;23.670;2023-01-30T03:23:21;91414.50;;;0.17;79.84
44481;BME280;30184;42.018;23.670;2023-01-30T03:25:50;91385.34;;;-0.06;80.21
44481;BME280;30184;42.018;23.670;2023-01-30T03:28:20;91403.78;;;0.13;80.60
44481;BME280;30184;42.018;23.670;2023-01-30T03:30:49;91387.72;;;0.06;80.52
44481;BME280;30184;42.018;23.670;2023-01-30T03:33:20;91342.94;;;-0.18;80.65
44481;BME280;30184;42.018;23.670;2023-01-30T03:35:51;91425.91;;;0.14;80.68
44481;BME280;30184;42.018;23.670;2023-01-30T03:38:21;91424.78;;;0.15;80.41
44481;BME280;30184;42.018;23.670;2023-01-30T03:40:50;91425.53;;;0.15;80.72
44481;BME280;30184;42.018;23.670;2023-01-30T03:43:20;91419.75;;;0.10;80.70
44481;BME280;30184;42.018;23.670;2023-01-30T03:45:50;91415.66;;;0.19;80.71
44481;BME280;30184;42.018;23.670;2023-01-30T03:48:21;91326.19;;;-0.15;80.50
44481;BME280;30184;42.018;23.670;2023-01-30T03:50:52;91368.38;;;0.20;80.27
44481;BME280;30184;42.018;23.670;2023-01-30T03:53:23;91386.56;;;0.00;80.14
44481;BME280;30184;42.018;23.670;2023-01-30T03:55:53;91119.34;;;-1.66;80.02
44481;BME280;30184;42.018;23.670;2023-01-30T03:58:26;91251.06;;;-0.72;80.37
44481;BME280;30184;42.018;23.670;2023-01-30T04:00:58;91343.03;;;-0.08;80.42
44481;BME280;30184;42.018;23.670;2023-01-30T04:03:29;91373.25;;;0.07;80.46
44481;BME280;30184;42.018;23.670;2023-01-30T04:06:00;91362.00;;;-0.16;80.41
44481;BME280;30184;42.018;23.670;2023-01-30T04:08:30;91408.34;;;0.09;80.67
44481;BME280;30184;42.018;23.670;2023-01-30T04:11:03;91366.75;;;0.05;80.78
44481;BME280;30184;42.018;23.670;2023-01-30T04:13:34;91373.25;;;0.07;80.74
44481;BME280;30184;42.018;23.670;2023-01-30T04:16:15;91366.72;;;0.01;80.69
44481;BME280;30184;42.018;23.670;2023-01-30T04:19:10;91416.28;;;0.02;81.15
44481;BME280;30184;42.018;23.670;2023-01-30T04:22:00;91406.34;;;-0.01;81.13
44481;BME280;30184;42.018;23.670;2023-01-30T04:24:30;91148.78;;;-1.52;80.90
44481;BME280;30184;42.018;23.670;2023-01-30T04:27:00;91101.44;;;-2.06;81.33
44481;BME280;30184;42.018;23.670;2023-01-30T04:29:33;91368.25;;;0.02;81.33
44481;BME280;30184;42.018;23.670;2023-01-30T04:32:04;91275.59;;;-0.56;81.00
44481;BME280;30184;42.018;23.670;2023-01-30T04:34:37;91363.63;;;-0.05;80.50
44481;BME280;30184;42.018;23.670;2023-01-30T04:37:06;91363.78;;;-0.27;80.52
44481;BME280;30184;42.018;23.670;2023-01-30T04:39:36;91320.78;;;-0.26;79.96
44481;BME280;30184;42.018;23.670;2023-01-30T04:42:07;91360.97;;;-0.05;79.10
44481;BME280;30184;42.018;23.670;2023-01-30T04:44:46;91352.94;;;-0.08;79.09
44481;BME280;30184;42.018;23.670;2023-01-30T04:47:19;91317.34;;;-0.30;79.08
44481;BME280;30184;42.018;23.670;2023-01-30T04:49:51;91344.16;;;-0.12;78.45
44481;BME280;30184;42.018;23.670;2023-01-30T04:52:20;91259.78;;;-0.79;78.35
44481;BME280;30184;42.018;23.670;2023-01-30T04:54:50;91394.78;;;-0.16;78.41
44481;BME280;30184;42.018;23.670;2023-01-30T04:57:19;91362.78;;;-0.16;78.44
44481;BME280;30184;42.018;23.670;2023-01-30T04:59:50;91246.91;;;-1.10;78.54
44481;BME280;30184;42.018;23.670;2023-01-30T05:02:19;91362.34;;;-0.21;78.65
44481;BME280;30184;42.018;23.670;2023-01-30T05:04:51;91350.94;;;-0.18;78.86
44481;BME280;30184;42.018;23.670;2023-01-30T05:07:24;91353.22;;;-0.20;78.46
44481;BME280;30184;42.018;23.670;2023-01-30T05:09:56;91247.47;;;-0.90;78.14
44481;BME280;30184;42.018;23.670;2023-01-30T05:12:25;91306.09;;;-0.50;78.17
44481;BME280;30184;42.018;23.670;2023-01-30T05:14:55;91345.59;;;-0.18;78.16
44481;BME280;30184;42.018;23.670;2023-01-30T05:17:29;91378.66;;;-0.26;78.09
44481;BME280;30184;42.018;23.670;2023-01-30T05:19:59;91357.03;;;-0.18;78.01
44481;BME280;30184;42.018;23.670;2023-01-30T05:22:29;91357.81;;;-0.17;77.93
44481;BME280;30184;42.018;23.670;2023-01-30T05:25:05;91333.31;;;-0.30;77.78
44481;BME280;30184;42.018;23.670;2023-01-30T05:27:34;91273.91;;;-0.74;77.60
44481;BME280;30184;42.018;23.670;2023-01-30T05:30:05;91318.72;;;-0.47;77.72
44481;BME280;30184;42.018;23.670;2023-01-30T05:32:35;91349.78;;;-0.21;77.84
44481;BME280;30184;42.018;23.670;2023-01-30T05:35:09;91330.56;;;-0.37;77.70
44481;BME280;30184;42.018;23.670;2023-01-30T05:37:39;91365.00;;;-0.21;78.13
44481;BME280;30184;42.018;23.670;2023-01-30T05:40:10;91274.63;;;-0.78;77.91
44481;BME280;30184;42.018;23.670;2023-01-30T05:42:40;91349.03;;;-0.21;77.91
44481;BME280;30184;42.018;23.670;2023-01-30T05:45:09;91284.63;;;-0.67;77.70
44481;BME280;30184;42.018;23.670;2023-01-30T05:47:39;91412.97;;;-0.25;77.45
44481;BME280;30184;42.018;23.670;2023-01-30T05:50:12;91347.81;;;-0.27;78.22
44481;BME280;30184;42.018;23.670;2023-01-30T05:52:41;91359.63;;;-0.28;77.65
44481;BME280;30184;42.018;23.670;2023-01-30T05:55:10;91363.72;;;-0.38;77.79
44481;BME280;30184;42.018;23.670;2023-01-30T05:57:40;91347.16;;;-0.58;77.81
44481;BME280;30184;42.018;23.670;2023-01-30T06:00:10;91355.06;;;-0.24;77.26
44481;BME280;30184;42.018;23.670;2023-01-30T06:02:40;91363.78;;;-0.31;77.62
44481;BME280;30184;42.018;23.670;2023-01-30T06:05:11;91395.78;;;-0.27;77.61
44481;BME280;30184;42.018;23.670;2023-01-30T06:07:40;91244.06;;;-0.91;77.61
44481;BME280;30184;42.018;23.670;2023-01-30T06:10:10;91371.53;;;-0.15;77.63
44481;BME280;30184;42.018;23.670;2023-01-30T06:12:40;91355.94;;;-0.13;77.55
44481;BME280;30184;42.018;23.670;2023-01-30T06:15:18;91353.63;;;-0.15;77.40
44481;BME280;30184;42.018;23.670;2023-01-30T06:17:53;91358.59;;;-0.13;78.00
44481;BME280;30184;42.018;23.670;2023-01-30T06:20:25;91111.63;;;-1.78;77.99
44481;BME280;30184;42.018;23.670;2023-01-30T06:22:54;91355.88;;;-0.20;78.17
44481;BME280;30184;42.018;23.670;2023-01-30T06:25:26;91269.41;;;-0.67;78.15
44481;BME280;30184;42.018;23.670;2023-01-30T06:27:55;91294.53;;;-0.64;78.14
44481;BME280;30184;42.018;23.670;2023-01-30T06:30:25;91403.59;;;-0.12;78.16
44481;BME280;30184;42.018;23.670;2023-01-30T06:32:54;91357.13;;;-0.11;78.91
44481;BME280;30184;42.018;23.670;2023-01-30T06:35:26;91281.59;;;-0.66;78.43
44481;BME280;30184;42.018;23.670;2023-01-30T06:37:55;91365.88;;;-0.10;78.18
44481;BME280;30184;42.018;23.670;2023-01-30T06:40:25;91354.50;;;-0.44;77.76
44481;BME280;30184;42.018;23.670;2023-01-30T06:42:55;91370.41;;;-0.88;77.80
44481;BME280;30184;42.018;23.670;2023-01-30T06:45:24;91256.66;;;-0.88;77.88
44481;BME280;30184;42.018;23.670;2023-01-30T06:47:54;91348.22;;;-0.25;78.08
44481;BME280;30184;42.018;23.670;2023-01-30T06:50:27;91330.25;;;-0.32;77.99
44481;BME280;30184;42.018;23.670;2023-01-30T06:53:01;91368.91;;;-0.12;77.77
44481;BME280;30184;42.018;23.670;2023-01-30T06:55:33;91355.97;;;-0.10;77.78
44481;BME280;30184;42.018;23.670;2023-01-30T06:58:05;91355.25;;;-0.03;77.81
44481;BME280;30184;42.018;23.670;2023-01-30T07:00:37;91356.81;;;0.02;77.55
44481;BME280;30184;42.018;23.670;2023-01-30T07:03:09;91360.28;;;0.06;77.24
44481;BME280;30184;42.018;23.670;2023-01-30T07:05:41;91359.16;;;0.10;76.90
44481;BME280;30184;42.018;23.670;2023-01-30T07:08:11;91359.84;;;-0.04;76.86
44481;BME280;30184;42.018;23.670;2023-01-30T07:10:42;91361.06;;;0.10;76.58
44481;BME280;30184;42.018;23.670;2023-01-30T07:13:12;91367.16;;;0.10;77.21
44481;BME280;30184;42.018;23.670;2023-01-30T07:15:41;91361.09;;;0.13;77.09
44481;BME280;30184;42.018;23.670;2023-01-30T07:18:11;91356.94;;;0.16;76.77
44481;BME280;30184;42.018;23.670;2023-01-30T07:20:45;91365.34;;;0.18;76.57
44481;BME280;30184;42.018;23.670;2023-01-30T07:23:15;91303.66;;;-0.25;76.06
44481;BME280;30184;42.018;23.670;2023-01-30T07:25:45;91373.75;;;0.23;76.42
44481;BME280;30184;42.018;23.670;2023-01-30T07:28:14;91366.94;;;0.26;76.59
44481;BME280;30184;42.018;23.670;2023-01-30T07:30:46;91368.06;;;0.28;76.76
44481;BME280;30184;42.018;23.670;2023-01-30T07:33:19;91323.97;;;-0.10;77.21
44481;BME280;30184;42.018;23.670;2023-01-30T07:35:50;91371.91;;;0.27;76.79
44481;BME280;30184;42.018;23.670;2023-01-30T07:38:20;91372.91;;;0.12;76.61
44481;BME280;30184;42.018;23.670;2023-01-30T07:40:49;91366.47;;;0.17;76.91
44481;BME280;30184;42.018;23.670;2023-01-30T07:43:19;91372.19;;;0.19;76.71
44481;BME280;30184;42.018;23.670;2023-01-30T07:45:49;91373.75;;;0.23;76.56
44481;BME280;30184;42.018;23.670;2023-01-30T07:48:20;91356.91;;;0.12;76.02
44481;BME280;30184;42.018;23.670;2023-01-30T07:50:54;91367.72;;;0.30;76.50
44481;BME280;30184;42.018;23.670;2023-01-30T07:53:25;91383.03;;;0.36;76.12
44481;BME280;30184;42.018;23.670;2023-01-30T07:55:54;91279.34;;;-0.16;75.90
44481;BME280;30184;42.018;23.670;2023-01-30T07:58:25;91377.38;;;0.49;75.67
44481;BME280;30184;42.018;23.670;2023-01-30T08:00:56;91373.19;;;0.51;75.47
44481;BME280;30184;42.018;23.670;2023-01-30T08:03:26;91360.13;;;0.35;75.32
44481;BME280;30184;42.018;23.670;2023-01-30T08:05:57;91283.63;;;-0.05;75.27
44481;BME280;30184;42.018;23.670;2023-01-30T11:47:07;91069.19;;;2.65;58.92
44481;BME280;30184;42.018;23.670;2023-01-30T11:49:41;91072.56;;;2.76;59.25
44481;BME280;30184;42.018;23.670;2023-01-30T11:52:16;91075.19;;;2.83;59.94
44481;BME280;30184;42.018;23.670;2023-01-30T11:54:46;91065.25;;;2.80;59.69
44481;BME280;30184;42.018;23.670;2023-01-30T11:57:17;90936.19;;;1.81;58.36
44481;BME280;30184;42.018;23.670;2023-01-30T11:59:53;91010.34;;;2.50;57.84
44481;BME280;30184;42.018;23.670;2023-01-30T12:02:27;90895.59;;;1.13;58.42
44481;BME280;30184;42.018;23.670;2023-01-30T12:05:00;90826.94;;;1.10;57.86
44481;BME280;30184;42.018;23.670;2023-01-30T12:07:33;91036.91;;;2.82;57.98
44481;BME280;30184;42.018;23.670;2023-01-30T12:10:25;90974.97;;;2.18;58.33
44481;BME280;30184;42.018;23.670;2023-01-30T12:12:57;90901.47;;;1.67;57.16
44481;BME280;30184;42.018;23.670;2023-01-30T12:15:30;90982.88;;;2.39;57.18
44481;BME280;30184;42.018;23.670;2023-01-30T12:18:11;91030.38;;;2.87;57.51
44481;BME280;30184;42.018;23.670;2023-01-30T12:20:48;90981.00;;;2.33;57.62
44481;BME280;30184;42.018;23.670;2023-01-30T12:23:29;91026.81;;;3.00;57.56
44481;BME280;30184;42.018;23.670;2023-01-30T12:26:05;91025.59;;;3.09;56.90
44481;BME280;30184;42.018;23.670;2023-01-30T12:28:46;90881.75;;;2.13;56.56
44481;BME280;30184;42.018;23.670;2023-01-30T12:31:27;90990.97;;;2.84;56.63
44481;BME280;30184;42.018;23.670;2023-01-30T12:34:00;91009.75;;;3.25;56.67
44481;BME280;30184;42.018;23.670;2023-01-30T12:36:36;90968.78;;;2.83;56.09
44481;BME280;30184;42.018;23.670;2023-01-30T12:39:27;90930.56;;;2.76;55.99
44481;BME280;30184;42.018;23.670;2023-01-30T12:45:12;90981.44;;;3.24;56.08
44481;BME280;30184;42.018;23.670;2023-01-30T12:48:04;91003.59;;;3.31;55.95
44481;BME280;30184;42.018;23.670;2023-01-30T12:50:50;91001.66;;;3.32;56.18
44481;BME280;30184;42.018;23.670;2023-01-30T12:53:30;90951.38;;;3.02;56.30
44481;BME280;30184;42.018;23.670;2023-01-30T12:59:26;91004.75;;;2.86;56.21
44481;BME280;30184;42.018;23.670;2023-01-30T13:02:13;90974.22;;;3.17;56.73
44481;BME280;30184;42.018;23.670;2023-01-30T13:04:56;90968.84;;;3.17;56.38
44481;BME280;30184;42.018;23.670;2023-01-30T13:07:40;90981.03;;;3.25;56.70
44481;BME280;30184;42.018;23.670;2023-01-30T13:10:16;90928.81;;;2.99;56.48
44481;BME280;30184;42.018;23.670;2023-01-30T13:12:52;90984.88;;;3.24;57.45
44481;BME280;30184;42.018;23.670;2023-01-30T13:15:32;90982.56;;;3.26;58.28
44481;BME280;30184;42.018;23.670;2023-01-30T13:18:10;90976.84;;;3.24;57.12
44481;BME280;30184;42.018;23.670;2023-01-30T13:20:52;90960.06;;;2.72;56.93
44481;BME280;30184;42.018;23.670;2023-01-30T13:23:31;90970.44;;;3.15;57.05
44481;BME280;30184;42.018;23.670;2023-01-30T13:26:06;90962.78;;;3.13;56.77
44481;BME280;30184;42.018;23.670;2023-01-30T13:28:38;90948.03;;;2.94;56.81
44481;BME280;30184;42.018;23.670;2023-01-30T13:31:12;90957.59;;;2.92;58.46
44481;BME280;30184;42.018;23.670;2023-01-30T13:33:44;90945.41;;;2.39;58.56
44481;BME280;30184;42.018;23.670;2023-01-30T13:36:17;90961.47;;;2.87;59.01
44481;BME280;30184;42.018;23.670;2023-01-30T13:38:56;90959.22;;;2.82;58.99
44481;BME280;30184;42.018;23.670;2023-01-30T13:41:30;90914.13;;;2.25;58.70
44481;BME280;30184;42.018;23.670;2023-01-30T13:44:05;90957.75;;;2.74;59.11
44481;BME280;30184;42.018;23.670;2023-01-30T13:46:38;90936.16;;;2.47;59.82
44481;BME280;30184;42.018;23.670;2023-01-30T13:49:12;90941.47;;;2.54;59.67
44481;BME280;30184;42.018;23.670;2023-01-30T13:51:47;90933.41;;;2.54;59.62
44481;BME280;30184;42.018;23.670;2023-01-30T13:54:29;90929.34;;;2.36;59.23
44481;BME280;30184;42.018;23.670;2023-01-30T13:57:10;90774.81;;;1.43;59.27
44481;BME280;30184;42.018;23.670;2023-01-30T14:00:06;90920.16;;;2.37;59.15
44481;BME280;30184;42.018;23.670;2023-01-30T14:03:14;90952.50;;;2.60;58.74
44481;BME280;30184;42.018;23.670;2023-01-30T14:08:51;90859.34;;;1.85;60.11
44481;BME280;30184;42.018;23.670;2023-01-30T14:11:30;90938.78;;;2.51;59.40
44481;BME280;30184;42.018;23.670;2023-01-30T14:14:04;90833.63;;;1.47;60.74
44481;BME280;30184;42.018;23.670;2023-01-30T14:16:42;90941.53;;;2.44;60.29
44481;BME280;30184;42.018;23.670;2023-01-30T14:22:20;90943.88;;;2.38;60.92
44481;BME280;30184;42.018;23.670;2023-01-30T14:28:43;90936.72;;;2.21;60.16
44481;BME280;30184;42.018;23.670;2023-01-30T14:31:45;90937.09;;;2.23;60.17
44481;BME280;30184;42.018;23.670;2023-01-30T14:34:42;90939.03;;;2.19;60.81
44481;BME280;30184;42.018;23.670;2023-01-30T14:37:48;90937.50;;;2.18;59.95
44481;BME280;30184;42.018;23.670;2023-01-30T14:40:36;90938.66;;;2.13;59.81
44481;BME280;30184;42.018;23.670;2023-01-30T14:43:34;90935.66;;;2.08;59.64
44481;BME280;30184;42.018;23.670;2023-01-30T14:46:05;90934.13;;;2.07;60.70
44481;BME280;30184;42.018;23.670;2023-01-30T14:48:40;90871.22;;;1.04;60.18
44481;BME280;30184;42.018;23.670;2023-01-30T14:51:18;90929.94;;;2.06;60.72
44481;BME280;30184;42.018;23.670;2023-01-30T14:53:53;90933.00;;;2.04;61.25
44481;BME280;30184;42.018;23.670;2023-01-30T14:56:39;90862.31;;;1.36;60.84
44481;BME280;30184;42.018;23.670;2023-01-30T14:59:19;90811.09;;;0.61;61.23
44481;BME280;30184;42.018;23.670;2023-01-30T15:01:59;90916.00;;;1.73;61.21
44481;BME280;30184;42.018;23.670;2023-01-30T15:04:31;90932.03;;;1.73;62.18
44481;BME280;30184;42.018;23.670;2023-01-30T15:07:06;90928.59;;;1.73;62.57
44481;BME280;30184;42.018;23.670;2023-01-30T15:09:41;90933.94;;;1.69;62.84
44481;BME280;30184;42.018;23.670;2023-01-30T15:12:40;90775.31;;;0.33;62.60
44481;BME280;30184;42.018;23.670;2023-01-30T15:15:25;90933.66;;;1.57;62.22
44481;BME280;30184;42.018;23.670;2023-01-30T15:21:17;90927.56;;;1.42;62.09
44481;BME280;30184;42.018;23.670;2023-01-30T15:24:03;90930.03;;;0.90;62.88
44481;BME280;30184;42.018;23.670;2023-01-30T15:26:45;90938.31;;;1.31;63.22
44481;BME280;30184;42.018;23.670;2023-01-30T15:32:20;90947.13;;;1.25;63.81
44481;BME280;30184;42.018;23.670;2023-01-30T15:34:51;90938.34;;;1.17;63.99
44481;BME280;30184;42.018;23.670;2023-01-30T15:37:34;90934.53;;;1.15;63.71
44481;BME280;30184;42.018;23.670;2023-01-30T15:40:21;90942.56;;;1.15;64.44
44481;BME280;30184;42.018;23.670;2023-01-30T15:42:54;90929.97;;;1.11;64.65
44481;BME280;30184;42.018;23.670;2023-01-30T15:45:35;90815.72;;;0.21;64.83
44481;BME280;30184;42.018;23.670;2023-01-30T15:51:24;90929.59;;;1.06;64.96
44481;BME280;30184;42.018;23.670;2023-01-30T15:53:55;90857.28;;;0.15;64.35
44481;BME280;30184;42.018;23.670;2023-01-30T15:56:30;90934.22;;;0.88;65.22
44481;BME280;30184;42.018;23.670;2023-01-30T15:59:00;90950.66;;;0.58;65.16
44481;BME280;30184;42.018;23.670;2023-01-30T16:01:30;90947.59;;;0.49;65.84
44481;BME280;30184;42.018;23.670;2023-01-30T16:04:24;90901.09;;;0.64;65.72
44481;BME280;30184;42.018;23.670;2023-01-30T16:06:55;90924.72;;;0.69;65.64
44481;BME280;30184;42.018;23.670;2023-01-30T16:09:25;90947.97;;;0.79;66.54
44481;BME280;30184;42.018;23.670;2023-01-30T16:11:54;90798.59;;;-0.45;67.71
44481;BME280;30184;42.018;23.670;2023-01-30T16:14:22;90944.19;;;0.73;68.21
44481;BME280;30184;42.018;23.670;2023-01-30T16:16:57;90964.78;;;0.55;68.59
44481;BME280;30184;42.018;23.670;2023-01-30T16:19:29;90771.59;;;-0.65;69.92
44481;BME280;30184;42.018;23.670;2023-01-30T16:22:03;90944.16;;;0.66;70.04
44481;BME280;30184;42.018;23.670;2023-01-30T16:24:34;90933.13;;;0.53;69.52
44481;BME280;30184;42.018;23.670;2023-01-30T16:27:06;90912.16;;;0.13;69.75
44481;BME280;30184;42.018;23.670;2023-01-30T16:29:47;90946.84;;;0.66;70.47
44481;BME280;30184;42.018;23.670;2023-01-30T16:32:31;90959.44;;;0.33;70.51
44481;BME280;30184;42.018;23.670;2023-01-30T16:35:26;90932.38;;;0.24;70.87
44481;BME280;30184;42.018;23.670;2023-01-30T16:37:58;90956.38;;;0.60;71.35
44481;BME280;30184;42.018;23.670;2023-01-30T16:40:29;90955.22;;;0.57;71.26
44481;BME280;30184;42.018;23.670;2023-01-30T16:43:01;90957.91;;;0.54;70.90
44481;BME280;30184;42.018;23.670;2023-01-30T16:48:49;90975.81;;;0.14;70.55
44481;BME280;30184;42.018;23.670;2023-01-30T16:51:21;90957.16;;;0.43;70.22
44481;BME280;30184;42.018;23.670;2023-01-30T16:53:55;90949.91;;;0.40;70.58
44481;BME280;30184;42.018;23.670;2023-01-30T16:56:26;90949.50;;;0.16;70.62
44481;BME280;30184;42.018;23.670;2023-01-30T16:58:58;90926.66;;;0.26;70.99
44481;BME280;30184;42.018;23.670;2023-01-30T17:01:37;90763.50;;;-1.07;70.57
44481;BME280;30184;42.018;23.670;2023-01-30T17:04:16;90918.66;;;0.08;71.00
44481;BME280;30184;42.018;23.670;2023-01-30T17:06:52;91005.19;;;0.32;71.21
44481;BME280;30184;42.018;23.670;2023-01-30T17:09:40;90940.00;;;0.26;71.26
44481;BME280;30184;42.018;23.670;2023-01-30T17:12:33;90934.66;;;0.15;71.21
44481;BME280;30184;42.018;23.670;2023-01-30T17:15:36;90953.72;;;0.17;71.12
44481;BME280;30184;42.018;23.670;2023-01-30T17:18:08;90949.13;;;0.14;70.38
44481;BME280;30184;42.018;23.670;2023-01-30T17:20:40;90956.75;;;0.05;69.82
44481;BME280;30184;42.018;23.670;2023-01-30T17:23:20;90958.63;;;0.05;69.91
44481;BME280;30184;42.018;23.670;2023-01-30T17:25:53;90956.38;;;-0.01;69.53
44481;BME280;30184;42.018;23.670;2023-01-30T17:28:22;90718.75;;;-1.96;69.54
44481;BME280;30184;42.018;23.670;2023-01-30T17:30:54;90934.97;;;-0.22;69.57
44481;BME280;30184;42.018;23.670;2023-01-30T17:33:23;90947.56;;;-0.15;69.70
44481;BME280;30184;42.018;23.670;2023-01-30T17:35:54;90781.69;;;-1.34;70.08
44481;BME280;30184;42.018;23.670;2023-01-30T17:38:27;90838.53;;;-1.71;70.36
44481;BME280;30184;42.018;23.670;2023-01-30T17:41:01;90930.72;;;-0.44;70.66
44481;BME280;30184;42.018;23.670;2023-01-30T17:43:32;90934.94;;;-0.47;70.34
44481;BME280;30184;42.018;23.670;2023-01-30T17:46:04;90918.50;;;-0.59;71.28
44481;BME280;30184;42.018;23.670;2023-01-30T17:48:33;90673.69;;;-2.43;71.04